THY4SF LTAC-LTFM
Flight info
| Callsign | THY4SF |
|---|---|
| Flight time | 0h 50m |
| Altitude | 28000 |
| Route | YAVRU A4 ERSEN |
| Aircraft | B738/M-SDE2E3FGHIRWXY/LB1 |
Departure
| Time | 2026-05-07 06:35 |
|---|---|
| Airport | Esenboğa International Airport (LTAC) |
Arrival
| Time | 2026-05-07 07:25 |
|---|---|
| Airport | İstanbul Airport (LTFM) |
| Time | Latitude | Longitude | Altitude | Speed | Heading |
|---|---|---|---|---|---|
| 2026-05-07 06:14 | 40.11654 | 32.99234 | 3125 ft | 0 kts | 154° |
| 2026-05-07 06:21 | 40.11662 | 32.99228 | 3124 ft | 3 kts | 154° |
| 2026-05-07 06:21 | 40.11681 | 32.99217 | 3125 ft | 3 kts | 154° |
| 2026-05-07 06:21 | 40.11699 | 32.99203 | 3125 ft | 3 kts | 128° |
| 2026-05-07 06:22 | 40.11706 | 32.99179 | 3125 ft | 3 kts | 86° |
| 2026-05-07 06:22 | 40.11693 | 32.99129 | 3125 ft | 3 kts | 62° |
| 2026-05-07 06:22 | 40.11682 | 32.99106 | 3124 ft | 2 kts | 59° |
| 2026-05-07 06:23 | 40.11685 | 32.99111 | 3124 ft | 1 kts | 59° |
| 2026-05-07 06:23 | 40.11685 | 32.99113 | 3123 ft | 0 kts | 59° |
| 2026-05-07 06:25 | 40.11691 | 32.99120 | 3124 ft | 2 kts | 44° |
| 2026-05-07 06:25 | 40.11711 | 32.99125 | 3123 ft | 4 kts | 354° |
| 2026-05-07 06:25 | 40.11743 | 32.99109 | 3125 ft | 6 kts | 333° |
| 2026-05-07 06:25 | 40.11779 | 32.99074 | 3126 ft | 7 kts | 320° |
| 2026-05-07 06:26 | 40.11822 | 32.99045 | 3125 ft | 7 kts | 352° |
| 2026-05-07 06:26 | 40.11872 | 32.99066 | 3127 ft | 9 kts | 32° |
| 2026-05-07 06:26 | 40.11933 | 32.99121 | 3123 ft | 12 kts | 35° |
| 2026-05-07 06:26 | 40.12004 | 32.99187 | 3126 ft | 13 kts | 37° |
| 2026-05-07 06:27 | 40.12086 | 32.99267 | 3125 ft | 17 kts | 36° |
| 2026-05-07 06:27 | 40.12187 | 32.99363 | 3120 ft | 18 kts | 36° |
| 2026-05-07 06:27 | 40.12289 | 32.99458 | 3124 ft | 18 kts | 34° |
| 2026-05-07 06:27 | 40.12385 | 32.99552 | 3122 ft | 17 kts | 37° |
| 2026-05-07 06:28 | 40.12477 | 32.99643 | 3126 ft | 16 kts | 37° |
| 2026-05-07 06:28 | 40.12567 | 32.99730 | 3125 ft | 16 kts | 36° |
| 2026-05-07 06:28 | 40.12654 | 32.99812 | 3129 ft | 15 kts | 35° |
| 2026-05-07 06:28 | 40.12738 | 32.99890 | 3126 ft | 14 kts | 35° |
| 2026-05-07 06:29 | 40.12818 | 32.99964 | 3127 ft | 14 kts | 36° |
| 2026-05-07 06:29 | 40.12895 | 33.00036 | 3127 ft | 13 kts | 35° |
| 2026-05-07 06:29 | 40.12969 | 33.00104 | 3125 ft | 13 kts | 34° |
| 2026-05-07 06:29 | 40.13041 | 33.00169 | 3125 ft | 12 kts | 34° |
| 2026-05-07 06:30 | 40.13110 | 33.00235 | 3128 ft | 12 kts | 38° |
| 2026-05-07 06:30 | 40.13177 | 33.00302 | 3129 ft | 12 kts | 37° |
| 2026-05-07 06:30 | 40.13241 | 33.00366 | 3130 ft | 12 kts | 37° |
| 2026-05-07 06:30 | 40.13304 | 33.00428 | 3132 ft | 11 kts | 37° |
| 2026-05-07 06:31 | 40.13367 | 33.00490 | 3133 ft | 12 kts | 37° |
| 2026-05-07 06:31 | 40.13437 | 33.00558 | 3132 ft | 13 kts | 37° |
| 2026-05-07 06:31 | 40.13511 | 33.00630 | 3132 ft | 13 kts | 37° |
| 2026-05-07 06:31 | 40.13596 | 33.00709 | 3130 ft | 17 kts | 36° |
| 2026-05-07 06:32 | 40.13701 | 33.00809 | 3126 ft | 20 kts | 36° |
| 2026-05-07 06:32 | 40.13809 | 33.00914 | 3128 ft | 19 kts | 36° |
| 2026-05-07 06:32 | 40.13913 | 33.01011 | 3125 ft | 14 kts | 36° |
| 2026-05-07 06:32 | 40.13997 | 33.01073 | 3130 ft | 14 kts | 4° |
| 2026-05-07 06:33 | 40.14082 | 33.01030 | 3131 ft | 13 kts | 312° |
| 2026-05-07 06:33 | 40.14118 | 33.00922 | 3130 ft | 13 kts | 296° |
| 2026-05-07 06:33 | 40.14169 | 33.00824 | 3127 ft | 13 kts | 307° |
| 2026-05-07 06:33 | 40.14207 | 33.00719 | 3124 ft | 13 kts | 269° |
| 2026-05-07 06:34 | 40.14154 | 33.00631 | 3121 ft | 15 kts | 216° |
| 2026-05-07 06:34 | 40.13870 | 33.00361 | 3125 ft | 90 kts | 215° |
| 2026-05-07 06:34 | 40.13162 | 32.99687 | 3129 ft | 160 kts | 216° |
| 2026-05-07 06:34 | 40.12109 | 32.98733 | 3354 ft | 206 kts | 214° |
| 2026-05-07 06:35 | 40.10854 | 32.97618 | 3877 ft | 225 kts | 214° |
| 2026-05-07 06:35 | 40.09623 | 32.96469 | 5100 ft | 209 kts | 218° |
| 2026-05-07 06:35 | 40.08434 | 32.95295 | 5738 ft | 222 kts | 218° |
| 2026-05-07 06:35 | 40.07135 | 32.94036 | 5993 ft | 241 kts | 217° |
| 2026-05-07 06:36 | 40.05749 | 32.92714 | 6385 ft | 257 kts | 217° |
| 2026-05-07 06:36 | 40.04259 | 32.91305 | 6834 ft | 271 kts | 217° |
| 2026-05-07 06:36 | 40.02987 | 32.89512 | 7623 ft | 272 kts | 242° |
| 2026-05-07 06:36 | 40.02443 | 32.87191 | 8418 ft | 275 kts | 267° |
| 2026-05-07 06:37 | 40.02722 | 32.84721 | 9166 ft | 280 kts | 291° |
| 2026-05-07 06:37 | 40.03719 | 32.82526 | 9969 ft | 283 kts | 307° |
| 2026-05-07 06:37 | 40.04925 | 32.80461 | 10593 ft | 292 kts | 308° |
| 2026-05-07 06:37 | 40.06216 | 32.78267 | 10767 ft | 317 kts | 308° |
| 2026-05-07 06:38 | 40.07595 | 32.75890 | 10986 ft | 339 kts | 307° |
| 2026-05-07 06:38 | 40.09032 | 32.73391 | 11505 ft | 348 kts | 307° |
| 2026-05-07 06:38 | 40.10495 | 32.70835 | 12208 ft | 353 kts | 307° |
| 2026-05-07 06:38 | 40.11966 | 32.68256 | 12952 ft | 356 kts | 307° |
| 2026-05-07 06:39 | 40.13456 | 32.65638 | 13660 ft | 360 kts | 307° |
| 2026-05-07 06:39 | 40.14957 | 32.63000 | 14316 ft | 364 kts | 307° |
| 2026-05-07 06:39 | 40.16471 | 32.60338 | 15002 ft | 365 kts | 307° |
| 2026-05-07 06:39 | 40.17988 | 32.57669 | 15714 ft | 366 kts | 307° |
| 2026-05-07 06:40 | 40.19510 | 32.54990 | 16389 ft | 368 kts | 308° |
| 2026-05-07 06:40 | 40.21091 | 32.52340 | 17029 ft | 371 kts | 313° |
| 2026-05-07 06:40 | 40.22904 | 32.49933 | 17705 ft | 372 kts | 317° |
| 2026-05-07 06:40 | 40.24818 | 32.47643 | 18372 ft | 374 kts | 319° |
| 2026-05-07 06:41 | 40.26759 | 32.45361 | 18951 ft | 376 kts | 319° |
| 2026-05-07 06:41 | 40.28697 | 32.43054 | 19540 ft | 377 kts | 319° |
| 2026-05-07 06:41 | 40.30626 | 32.40719 | 20121 ft | 379 kts | 318° |
| 2026-05-07 06:41 | 40.32556 | 32.38353 | 20679 ft | 381 kts | 318° |
| 2026-05-07 06:42 | 40.34489 | 32.35966 | 21231 ft | 383 kts | 318° |
| 2026-05-07 06:42 | 40.36401 | 32.33597 | 21811 ft | 384 kts | 318° |
| 2026-05-07 06:42 | 40.38348 | 32.31182 | 22347 ft | 386 kts | 318° |
| 2026-05-07 06:42 | 40.40302 | 32.28758 | 22862 ft | 388 kts | 318° |
| 2026-05-07 06:43 | 40.42272 | 32.26312 | 23361 ft | 390 kts | 318° |
| 2026-05-07 06:43 | 40.44249 | 32.23856 | 23833 ft | 392 kts | 318° |
| 2026-05-07 06:43 | 40.46224 | 32.21377 | 24212 ft | 395 kts | 315° |
| 2026-05-07 06:43 | 40.47867 | 32.18455 | 24561 ft | 403 kts | 300° |
| 2026-05-07 06:44 | 40.48972 | 32.15060 | 24982 ft | 406 kts | 294° |
| 2026-05-07 06:44 | 40.49973 | 32.11590 | 25445 ft | 405 kts | 293° |
| 2026-05-07 06:44 | 40.50953 | 32.08127 | 25968 ft | 404 kts | 293° |
| 2026-05-07 06:44 | 40.51936 | 32.04685 | 26501 ft | 402 kts | 294° |
| 2026-05-07 06:45 | 40.52927 | 32.01261 | 27027 ft | 400 kts | 294° |
| 2026-05-07 06:45 | 40.53924 | 31.97851 | 27513 ft | 399 kts | 294° |
| 2026-05-07 06:45 | 40.54923 | 31.94456 | 27982 ft | 398 kts | 294° |
| 2026-05-07 06:45 | 40.55926 | 31.91050 | 28130 ft | 401 kts | 294° |
| 2026-05-07 06:46 | 40.57929 | 31.84230 | 28132 ft | 396 kts | 294° |
| 2026-05-07 06:46 | 40.59767 | 31.77390 | 28152 ft | 398 kts | 291° |
| 2026-05-07 06:47 | 40.61452 | 31.70438 | 28145 ft | 400 kts | 291° |
| 2026-05-07 06:47 | 40.63144 | 31.63463 | 28136 ft | 400 kts | 291° |
| 2026-05-07 06:48 | 40.64849 | 31.56506 | 28141 ft | 398 kts | 291° |
| 2026-05-07 06:48 | 40.66544 | 31.49615 | 28142 ft | 397 kts | 291° |
| 2026-05-07 06:49 | 40.68238 | 31.42715 | 28144 ft | 395 kts | 291° |
| 2026-05-07 06:49 | 40.69920 | 31.35846 | 28136 ft | 393 kts | 291° |
| 2026-05-07 06:50 | 40.71594 | 31.28990 | 28135 ft | 393 kts | 291° |
| 2026-05-07 06:50 | 40.73267 | 31.22119 | 28138 ft | 393 kts | 291° |
| 2026-05-07 06:51 | 40.74932 | 31.15262 | 28135 ft | 393 kts | 291° |
| 2026-05-07 06:51 | 40.76593 | 31.08395 | 28129 ft | 394 kts | 291° |
| 2026-05-07 06:52 | 40.78254 | 31.01513 | 28125 ft | 393 kts | 291° |
| 2026-05-07 06:52 | 40.79905 | 30.94644 | 28147 ft | 392 kts | 291° |
| 2026-05-07 06:53 | 40.81544 | 30.87813 | 28118 ft | 393 kts | 291° |
| 2026-05-07 06:53 | 40.83182 | 30.80960 | 27839 ft | 387 kts | 291° |
| 2026-05-07 06:54 | 40.83980 | 30.77610 | 27580 ft | 379 kts | 291° |
| 2026-05-07 06:54 | 40.84762 | 30.74324 | 27315 ft | 371 kts | 291° |
| 2026-05-07 06:54 | 40.85528 | 30.71109 | 27049 ft | 364 kts | 291° |
| 2026-05-07 06:54 | 40.86281 | 30.67938 | 26786 ft | 358 kts | 291° |
| 2026-05-07 06:55 | 40.86894 | 30.64771 | 26518 ft | 356 kts | 284° |
| 2026-05-07 06:55 | 40.87222 | 30.61516 | 26275 ft | 356 kts | 280° |
| 2026-05-07 06:55 | 40.87471 | 30.58248 | 26039 ft | 359 kts | 280° |
| 2026-05-07 06:55 | 40.87741 | 30.54956 | 25797 ft | 362 kts | 281° |
| 2026-05-07 06:56 | 40.88036 | 30.51696 | 25556 ft | 361 kts | 281° |
| 2026-05-07 06:56 | 40.88349 | 30.48418 | 25311 ft | 358 kts | 283° |
| 2026-05-07 06:56 | 40.89051 | 30.45315 | 25056 ft | 349 kts | 299° |
| 2026-05-07 06:56 | 40.90374 | 30.42676 | 24832 ft | 343 kts | 313° |
| 2026-05-07 06:57 | 40.91951 | 30.40328 | 24611 ft | 341 kts | 314° |
| 2026-05-07 06:57 | 40.93560 | 30.38026 | 24371 ft | 340 kts | 314° |
| 2026-05-07 06:57 | 40.95155 | 30.35721 | 24143 ft | 340 kts | 314° |
| 2026-05-07 06:57 | 40.96736 | 30.33398 | 23915 ft | 339 kts | 314° |
| 2026-05-07 06:58 | 40.98304 | 30.31070 | 23674 ft | 339 kts | 314° |
| 2026-05-07 06:58 | 40.99874 | 30.28732 | 23397 ft | 338 kts | 314° |
| 2026-05-07 06:58 | 41.01436 | 30.26403 | 23130 ft | 338 kts | 314° |
| 2026-05-07 06:58 | 41.02992 | 30.24080 | 22855 ft | 337 kts | 314° |
| 2026-05-07 06:59 | 41.04547 | 30.21761 | 22590 ft | 336 kts | 314° |
| 2026-05-07 06:59 | 41.05893 | 30.19228 | 22278 ft | 340 kts | 297° |
| 2026-05-07 06:59 | 41.06522 | 30.16198 | 22041 ft | 345 kts | 279° |
| 2026-05-07 06:59 | 41.06378 | 30.13004 | 21777 ft | 353 kts | 260° |
| 2026-05-07 07:00 | 41.05473 | 30.10001 | 21527 ft | 360 kts | 243° |
| 2026-05-07 07:00 | 41.03833 | 30.07458 | 21289 ft | 367 kts | 226° |
| 2026-05-07 07:00 | 41.01903 | 30.05231 | 21050 ft | 367 kts | 224° |
| 2026-05-07 07:00 | 40.99959 | 30.03047 | 20792 ft | 367 kts | 224° |
| 2026-05-07 07:01 | 40.98026 | 30.00847 | 20544 ft | 366 kts | 225° |
| 2026-05-07 07:01 | 40.96106 | 29.98636 | 20298 ft | 364 kts | 225° |
| 2026-05-07 07:01 | 40.94209 | 29.96437 | 20048 ft | 362 kts | 225° |
| 2026-05-07 07:01 | 40.92321 | 29.94246 | 19793 ft | 360 kts | 225° |
| 2026-05-07 07:02 | 40.90437 | 29.92062 | 19573 ft | 358 kts | 225° |
| 2026-05-07 07:02 | 40.88601 | 29.89866 | 19309 ft | 354 kts | 231° |
| 2026-05-07 07:02 | 40.87336 | 29.87238 | 19068 ft | 343 kts | 252° |
| 2026-05-07 07:02 | 40.86790 | 29.84224 | 18833 ft | 334 kts | 269° |
| 2026-05-07 07:03 | 40.86736 | 29.81177 | 18618 ft | 331 kts | 273° |
| 2026-05-07 07:03 | 40.86736 | 29.78143 | 18375 ft | 330 kts | 272° |
| 2026-05-07 07:03 | 40.86725 | 29.75122 | 18097 ft | 329 kts | 272° |
| 2026-05-07 07:03 | 40.86703 | 29.72107 | 17826 ft | 327 kts | 272° |
| 2026-05-07 07:04 | 40.86668 | 29.69105 | 17557 ft | 326 kts | 272° |
| 2026-05-07 07:04 | 40.86629 | 29.66109 | 17295 ft | 326 kts | 272° |
| 2026-05-07 07:04 | 40.86653 | 29.63129 | 17034 ft | 323 kts | 278° |
| 2026-05-07 07:04 | 40.86944 | 29.60200 | 16790 ft | 322 kts | 282° |
| 2026-05-07 07:05 | 40.87179 | 29.58254 | 16610 ft | 322 kts | 282° |
| 2026-05-07 07:05 | 40.87520 | 29.55333 | 16360 ft | 322 kts | 281° |
| 2026-05-07 07:05 | 40.87881 | 29.52424 | 16107 ft | 319 kts | 288° |
| 2026-05-07 07:05 | 40.88834 | 29.49822 | 15847 ft | 314 kts | 310° |
| 2026-05-07 07:06 | 40.90432 | 29.47896 | 15603 ft | 311 kts | 329° |
| 2026-05-07 07:06 | 40.92406 | 29.46769 | 15368 ft | 310 kts | 348° |
| 2026-05-07 07:06 | 40.94546 | 29.46460 | 15133 ft | 309 kts | 356° |
| 2026-05-07 07:06 | 40.96702 | 29.46337 | 14897 ft | 310 kts | 357° |
| 2026-05-07 07:07 | 40.98832 | 29.45960 | 14645 ft | 310 kts | 345° |
| 2026-05-07 07:07 | 41.00885 | 29.45094 | 14408 ft | 309 kts | 341° |
| 2026-05-07 07:07 | 41.02915 | 29.44158 | 14162 ft | 309 kts | 341° |
| 2026-05-07 07:07 | 41.04951 | 29.43245 | 13920 ft | 308 kts | 341° |
| 2026-05-07 07:08 | 41.06934 | 29.42194 | 13654 ft | 306 kts | 331° |
| 2026-05-07 07:08 | 41.08713 | 29.40720 | 13405 ft | 305 kts | 327° |
| 2026-05-07 07:08 | 41.10472 | 29.39139 | 13144 ft | 305 kts | 326° |
| 2026-05-07 07:08 | 41.12234 | 29.37578 | 12885 ft | 304 kts | 327° |
| 2026-05-07 07:09 | 41.13983 | 29.35996 | 12621 ft | 304 kts | 321° |
| 2026-05-07 07:09 | 41.15471 | 29.34009 | 12372 ft | 303 kts | 313° |
| 2026-05-07 07:09 | 41.16748 | 29.31782 | 12093 ft | 305 kts | 297° |
| 2026-05-07 07:09 | 41.17309 | 29.29082 | 11848 ft | 307 kts | 276° |
| 2026-05-07 07:10 | 41.17063 | 29.26280 | 11608 ft | 309 kts | 254° |
| 2026-05-07 07:10 | 41.16046 | 29.23772 | 11353 ft | 310 kts | 233° |
| 2026-05-07 07:10 | 41.14423 | 29.21903 | 11114 ft | 310 kts | 217° |
| 2026-05-07 07:10 | 41.12669 | 29.20325 | 10892 ft | 310 kts | 216° |
| 2026-05-07 07:11 | 41.10846 | 29.18709 | 10631 ft | 309 kts | 216° |
| 2026-05-07 07:11 | 41.09191 | 29.17239 | 10417 ft | 308 kts | 217° |
| 2026-05-07 07:11 | 41.07422 | 29.15647 | 10173 ft | 308 kts | 217° |
| 2026-05-07 07:11 | 41.05648 | 29.14046 | 9928 ft | 308 kts | 217° |
| 2026-05-07 07:12 | 41.03890 | 29.12458 | 9638 ft | 302 kts | 217° |
| 2026-05-07 07:12 | 41.02184 | 29.10919 | 9363 ft | 291 kts | 217° |
| 2026-05-07 07:12 | 41.00538 | 29.09432 | 9093 ft | 282 kts | 217° |
| 2026-05-07 07:12 | 40.98936 | 29.07982 | 8823 ft | 276 kts | 218° |
| 2026-05-07 07:13 | 40.97358 | 29.06555 | 8587 ft | 274 kts | 218° |
| 2026-05-07 07:13 | 40.95813 | 29.05164 | 8495 ft | 260 kts | 218° |
| 2026-05-07 07:13 | 40.94364 | 29.03861 | 8391 ft | 243 kts | 218° |
| 2026-05-07 07:13 | 40.93012 | 29.02647 | 8285 ft | 226 kts | 218° |
| 2026-05-07 07:14 | 40.91998 | 29.01236 | 8136 ft | 202 kts | 249° |
| 2026-05-07 07:14 | 40.91681 | 28.99540 | 7932 ft | 184 kts | 272° |
| 2026-05-07 07:14 | 40.91847 | 28.97924 | 7690 ft | 179 kts | 287° |
| 2026-05-07 07:14 | 40.92205 | 28.96342 | 7457 ft | 181 kts | 289° |
| 2026-05-07 07:15 | 40.92585 | 28.94751 | 7218 ft | 182 kts | 289° |
| 2026-05-07 07:15 | 40.92965 | 28.93157 | 6982 ft | 181 kts | 289° |
| 2026-05-07 07:15 | 40.93341 | 28.91572 | 6734 ft | 180 kts | 288° |
| 2026-05-07 07:15 | 40.93714 | 28.89997 | 6488 ft | 179 kts | 288° |
| 2026-05-07 07:16 | 40.94085 | 28.88424 | 6235 ft | 178 kts | 288° |
| 2026-05-07 07:16 | 40.94452 | 28.86860 | 5976 ft | 178 kts | 288° |
| 2026-05-07 07:16 | 40.94817 | 28.85304 | 5712 ft | 175 kts | 288° |
| 2026-05-07 07:16 | 40.95177 | 28.83767 | 5477 ft | 173 kts | 287° |
| 2026-05-07 07:17 | 40.95523 | 28.82288 | 5266 ft | 163 kts | 288° |
| 2026-05-07 07:17 | 40.95853 | 28.80880 | 5094 ft | 160 kts | 288° |
| 2026-05-07 07:17 | 40.96191 | 28.79505 | 5022 ft | 154 kts | 287° |
| 2026-05-07 07:17 | 40.96504 | 28.78139 | 5026 ft | 156 kts | 287° |
| 2026-05-07 07:18 | 40.96821 | 28.76765 | 5020 ft | 156 kts | 287° |
| 2026-05-07 07:18 | 40.97136 | 28.75393 | 5020 ft | 156 kts | 286° |
| 2026-05-07 07:18 | 40.97706 | 28.74194 | 5051 ft | 157 kts | 319° |
| 2026-05-07 07:18 | 40.98694 | 28.73499 | 5009 ft | 165 kts | 348° |
| 2026-05-07 07:19 | 40.99830 | 28.73473 | 5025 ft | 163 kts | 353° |
| 2026-05-07 07:19 | 41.00947 | 28.73368 | 5023 ft | 163 kts | 352° |
| 2026-05-07 07:19 | 41.02099 | 28.73290 | 5024 ft | 169 kts | 354° |
| 2026-05-07 07:19 | 41.03281 | 28.73240 | 4796 ft | 166 kts | 355° |
| 2026-05-07 07:20 | 41.04410 | 28.73210 | 4572 ft | 159 kts | 356° |
| 2026-05-07 07:20 | 41.05503 | 28.73192 | 4398 ft | 156 kts | 355° |
| 2026-05-07 07:20 | 41.06596 | 28.73159 | 4188 ft | 159 kts | 355° |
| 2026-05-07 07:20 | 41.07705 | 28.73136 | 3952 ft | 159 kts | 355° |
| 2026-05-07 07:21 | 41.08807 | 28.73116 | 3745 ft | 159 kts | 355° |
| 2026-05-07 07:21 | 41.09914 | 28.73119 | 3559 ft | 159 kts | 355° |
| 2026-05-07 07:21 | 41.11028 | 28.73087 | 3332 ft | 159 kts | 354° |
| 2026-05-07 07:21 | 41.12127 | 28.73039 | 3073 ft | 157 kts | 355° |
| 2026-05-07 07:22 | 41.13248 | 28.73035 | 2901 ft | 170 kts | 357° |
| 2026-05-07 07:22 | 41.14413 | 28.73034 | 2648 ft | 159 kts | 354° |
| 2026-05-07 07:22 | 41.15517 | 28.72987 | 2428 ft | 157 kts | 355° |
| 2026-05-07 07:22 | 41.16624 | 28.72961 | 2267 ft | 163 kts | 356° |
| 2026-05-07 07:23 | 41.17758 | 28.72936 | 1996 ft | 160 kts | 356° |
| 2026-05-07 07:23 | 41.18871 | 28.72918 | 1802 ft | 162 kts | 357° |
| 2026-05-07 07:23 | 41.19989 | 28.72898 | 1547 ft | 158 kts | 357° |
| 2026-05-07 07:23 | 41.21076 | 28.72872 | 1338 ft | 156 kts | 356° |
| 2026-05-07 07:24 | 41.22167 | 28.72837 | 1113 ft | 156 kts | 358° |
| 2026-05-07 07:24 | 41.23245 | 28.72825 | 878 ft | 155 kts | 357° |
| 2026-05-07 07:24 | 41.24314 | 28.72812 | 669 ft | 154 kts | 358° |
| 2026-05-07 07:24 | 41.25391 | 28.72788 | 525 ft | 156 kts | 357° |
| 2026-05-07 07:25 | 41.27477 | 28.72725 | 285 ft | 103 kts | 0° |
| 2026-05-07 07:25 | 41.27801 | 28.72728 | 280 ft | 24 kts | 3° |
| 2026-05-07 07:25 | 41.27955 | 28.72771 | 279 ft | 22 kts | 21° |
| 2026-05-07 07:26 | 41.28082 | 28.72847 | 277 ft | 11 kts | 30° |
| 2026-05-07 07:26 | 41.28114 | 28.72930 | 275 ft | 10 kts | 105° |
| 2026-05-07 07:26 | 41.28056 | 28.72969 | 277 ft | 10 kts | 173° |
| 2026-05-07 07:26 | 41.27982 | 28.72977 | 279 ft | 10 kts | 175° |
| 2026-05-07 07:27 | 41.27916 | 28.72978 | 285 ft | 9 kts | 181° |
| 2026-05-07 07:27 | 41.27840 | 28.72974 | 284 ft | 12 kts | 182° |
| 2026-05-07 07:27 | 41.27758 | 28.72973 | 290 ft | 11 kts | 180° |
| 2026-05-07 07:27 | 41.27697 | 28.72974 | 291 ft | 7 kts | 179° |
| 2026-05-07 07:28 | 41.27654 | 28.72975 | 290 ft | 7 kts | 179° |
| 2026-05-07 07:28 | 41.27603 | 28.73001 | 294 ft | 9 kts | 128° |
| 2026-05-07 07:28 | 41.27594 | 28.73095 | 296 ft | 12 kts | 90° |
| 2026-05-07 07:28 | 41.27596 | 28.73221 | 297 ft | 15 kts | 89° |
| 2026-05-07 07:29 | 41.27560 | 28.73310 | 299 ft | 10 kts | 167° |
| 2026-05-07 07:29 | 41.27543 | 28.73312 | 300 ft | 0 kts | 179° |